Time;durP1;ratioP1;P1;durP2;ratioP2;P2;SDS_P1;SDS_P2;PMS_P1;PMS_P2;Temp;Humidity;BMP_temperature;BMP_pressure;BME280_temperature;BME280_humidity;BME280_pressure;Samples;Min_cycle;Max_cycle;Signal;HPM_P1;HPM_P2
2023/05/14 00:00:15;;;;;;;0.00;0.00;;;12.80;91.50;;;;;;5055593;28;20123;-84
2023/05/14 00:02:41;;;;;;;0.20;0.20;;;12.70;91.60;;;;;;5064055;28;20027;-81
2023/05/14 00:05:07;;;;;;;0.10;0.10;;;12.70;91.70;;;;;;5080712;28;20020;-81
2023/05/14 00:07:33;;;;;;;0.20;0.20;;;12.70;91.50;;;;;;5047366;28;20060;-83
2023/05/14 00:09:59;;;;;;;0.20;0.20;;;12.70;91.50;;;;;;5062400;28;20056;-83
2023/05/14 00:12:28;;;;;;;0.30;0.30;;;12.70;92.00;;;;;;5033638;28;20383;-83
2023/05/14 00:14:55;;;;;;;0.20;0.20;;;12.60;91.80;;;;;;5063632;28;20016;-81
2023/05/14 00:17:21;;;;;;;0.10;0.10;;;12.60;91.70;;;;;;5061406;28;20036;-81
2023/05/14 00:19:47;;;;;;;0.20;0.20;;;12.60;91.70;;;;;;5080508;28;20051;-81
2023/05/14 00:22:13;;;;;;;0.00;0.00;;;12.60;91.80;;;;;;5063649;28;20264;-80
2023/05/14 00:24:38;;;;;;;0.23;0.23;;;12.60;92.00;;;;;;5061709;28;21061;-81
2023/05/14 00:27:05;;;;;;;0.00;0.00;;;12.50;92.30;;;;;;5057337;28;20037;-88
2023/05/14 00:29:31;;;;;;;0.20;0.20;;;12.50;92.50;;;;;;5067603;28;20063;-81
2023/05/14 00:31:57;;;;;;;0.25;0.25;;;12.50;92.60;;;;;;5070650;28;20025;-80
2023/05/14 00:34:23;;;;;;;0.00;0.00;;;12.40;92.80;;;;;;5065388;28;20036;-83
2023/05/14 00:36:50;;;;;;;0.32;0.32;;;12.40;92.80;;;;;;5065357;28;20091;-83
2023/05/14 00:39:15;;;;;;;;;;;12.30;92.50;;;;;;5057513;28;20028;-84
2023/05/14 00:41:41;;;;;;;0.10;0.10;;;12.40;92.60;;;;;;5059396;28;19912;-82
2023/05/14 00:44:07;;;;;;;0.10;0.10;;;12.30;93.00;;;;;;5066469;28;20050;-85
2023/05/14 00:46:33;;;;;;;0.30;0.30;;;12.40;92.90;;;;;;5050317;28;20025;-83
2023/05/14 00:48:58;;;;;;;0.10;0.10;;;12.30;92.90;;;;;;5068127;28;20082;-85
2023/05/14 00:51:25;;;;;;;0.00;0.00;;;12.30;93.30;;;;;;5052970;28;20055;-87
2023/05/14 00:53:51;;;;;;;0.05;0.05;;;12.20;93.30;;;;;;5071029;28;20024;-83
2023/05/14 00:56:17;;;;;;;0.00;0.00;;;12.00;93.60;;;;;;5066334;28;20048;-83
2023/05/14 00:58:43;;;;;;;0.10;0.10;;;11.90;93.80;;;;;;5039349;28;20094;-83
2023/05/14 01:01:09;;;;;;;0.10;0.10;;;11.80;94.50;;;;;;5044889;28;20765;-81
2023/05/14 01:03:35;;;;;;;0.10;0.10;;;11.70;94.50;;;;;;5065438;28;20800;-82
2023/05/14 01:06:09;;;;;;;0.00;0.00;;;11.60;94.70;;;;;;5045516;28;20410;-81
2023/05/14 01:09:09;;;;;;;0.20;0.20;;;11.50;94.70;;;;;;5066086;28;20051;-84
2023/05/14 01:12:15;;;;;;;0.10;0.10;;;11.50;94.20;;;;;;5063111;28;20208;-84
2023/05/14 01:14:48;;;;;;;0.30;0.30;;;11.50;94.50;;;;;;5053591;28;20071;-81
2023/05/14 01:17:18;;;;;;;0.20;0.20;;;11.40;94.40;;;;;;5044560;28;20839;-80
2023/05/14 01:19:46;;;;;;;0.30;0.30;;;11.30;94.60;;;;;;5044170;28;20032;-81
2023/05/14 01:22:12;;;;;;;0.10;0.10;;;11.30;94.70;;;;;;5058576;28;20028;-80
2023/05/14 01:24:38;;;;;;;0.40;0.40;;;11.30;94.60;;;;;;5062555;28;20031;-81
2023/05/14 01:27:26;;;;;;;0.10;0.10;;;11.30;94.40;;;;;;5043876;28;20033;-83
2023/05/14 01:30:18;;;;;;;0.10;0.10;;;11.20;94.40;;;;;;5062436;28;20052;-81
2023/05/14 01:32:47;;;;;;;0.20;0.20;;;11.20;94.40;;;;;;5057025;28;20016;-81
2023/05/14 01:35:14;;;;;;;0.17;0.17;;;11.10;94.50;;;;;;5061419;28;20120;-80
2023/05/14 01:37:40;;;;;;;0.10;0.10;;;11.20;94.40;;;;;;5041990;28;20748;-83
2023/05/14 01:40:08;;;;;;;0.00;0.00;;;11.20;94.20;;;;;;5045301;28;20115;-84
2023/05/14 01:42:34;;;;;;;0.10;0.10;;;11.20;94.30;;;;;;5065363;28;20085;-82
2023/05/14 01:45:00;;;;;;;0.73;0.27;;;11.10;94.60;;;;;;5062838;28;20767;-83
2023/05/14 01:47:26;;;;;;;0.10;0.10;;;11.00;94.80;;;;;;5064632;28;20031;-80
2023/05/14 01:49:51;;;;;;;0.47;0.47;;;11.00;95.10;;;;;;5062962;28;20049;-84
2023/05/14 01:52:19;;;;;;;0.10;0.10;;;10.90;95.30;;;;;;5060111;28;20059;-83
2023/05/14 01:54:46;;;;;;;0.10;0.10;;;10.90;95.40;;;;;;5073570;28;20024;-83
2023/05/14 01:57:11;;;;;;;2.17;0.57;;;10.90;95.50;;;;;;5080105;28;20028;-83
2023/05/14 01:59:37;;;;;;;0.38;0.38;;;10.90;95.40;;;;;;5058714;28;20035;-83
2023/05/14 02:02:03;;;;;;;0.10;0.10;;;10.90;95.40;;;;;;5065539;28;20575;-81
2023/05/14 02:04:28;;;;;;;1.65;0.40;;;10.80;95.60;;;;;;5051843;28;20074;-82
2023/05/14 02:06:55;;;;;;;0.45;0.45;;;10.80;95.60;;;;;;5061675;28;20044;-85
2023/05/14 02:09:21;;;;;;;0.10;0.10;;;10.80;95.60;;;;;;5072587;28;20039;-81
2023/05/14 02:11:47;;;;;;;0.10;0.10;;;10.80;95.80;;;;;;5060238;28;20031;-81
2023/05/14 02:14:14;;;;;;;0.10;0.10;;;10.70;95.90;;;;;;5067028;28;20059;-83
2023/05/14 02:16:39;;;;;;;;;;;10.60;96.10;;;;;;5062588;28;20115;-85
2023/05/14 02:19:05;;;;;;;0.10;0.10;;;10.70;96.10;;;;;;5064106;28;20346;-85
2023/05/14 02:21:31;;;;;;;0.10;0.10;;;10.60;96.00;;;;;;5064839;28;20502;-80
2023/05/14 02:23:56;;;;;;;0.32;0.32;;;10.70;96.10;;;;;;5049632;28;20024;-80
2023/05/14 02:26:22;;;;;;;0.32;0.32;;;10.60;96.30;;;;;;5057158;28;20107;-80
2023/05/14 02:28:48;;;;;;;0.20;0.20;;;10.50;96.60;;;;;;5055322;28;20048;-83
2023/05/14 02:31:13;;;;;;;0.10;0.10;;;10.50;96.60;;;;;;5061941;28;20053;-81
2023/05/14 02:33:39;;;;;;;0.30;0.30;;;10.50;96.90;;;;;;5056826;28;20029;-83
2023/05/14 02:36:05;;;;;;;0.00;0.00;;;10.50;97.30;;;;;;5055702;28;20535;-83
2023/05/14 02:38:31;;;;;;;0.10;0.10;;;10.50;97.20;;;;;;5045364;28;20496;-81
2023/05/14 02:40:56;;;;;;;0.10;0.10;;;10.50;97.40;;;;;;5062858;28;20048;-81
2023/05/14 02:43:22;;;;;;;0.10;0.10;;;10.50;97.30;;;;;;5063204;28;20029;-82
2023/05/14 02:45:48;;;;;;;0.10;0.10;;;10.70;97.10;;;;;;5062667;28;20851;-81
2023/05/14 02:48:14;;;;;;;0.38;0.38;;;10.70;96.90;;;;;;5039692;28;20032;-82
2023/05/14 02:50:39;;;;;;;0.28;0.28;;;10.70;96.70;;;;;;5062433;28;20064;-85
2023/05/14 02:53:05;;;;;;;0.85;0.85;;;10.70;96.70;;;;;;5056225;28;20107;-82
2023/05/14 02:55:30;;;;;;;0.10;0.10;;;10.70;96.70;;;;;;5067479;28;20024;-82
2023/05/14 02:57:56;;;;;;;0.15;0.15;;;10.60;96.80;;;;;;5045522;28;20025;-82
2023/05/14 03:00:22;;;;;;;0.10;0.10;;;10.60;96.90;;;;;;5047419;28;20119;-81
2023/05/14 03:02:48;;;;;;;0.15;0.15;;;10.60;97.20;;;;;;5060169;28;20036;-81
2023/05/14 03:05:16;;;;;;;0.10;0.10;;;10.40;97.50;;;;;;5060851;28;20074;-81
2023/05/14 03:07:41;;;;;;;0.20;0.20;;;10.30;97.90;;;;;;5054674;28;20023;-84
2023/05/14 03:10:07;;;;;;;0.15;0.15;;;10.20;98.20;;;;;;5047315;28;20032;-81
2023/05/14 03:12:33;;;;;;;0.47;0.47;;;10.20;98.50;;;;;;5082527;28;20036;-84
2023/05/14 03:14:59;;;;;;;0.32;0.32;;;10.00;99.10;;;;;;5058141;28;20017;-81
2023/05/14 03:17:24;;;;;;;0.50;0.50;;;9.80;99.90;;;;;;5077263;28;20032;-84
2023/05/14 03:19:50;;;;;;;0.35;0.35;;;9.80;99.90;;;;;;5063486;28;20040;-82
2023/05/14 03:22:16;;;;;;;0.40;0.40;;;9.90;99.90;;;;;;5062684;28;20055;-81
2023/05/14 03:24:41;;;;;;;0.10;0.10;;;9.90;99.90;;;;;;5067926;28;20047;-83
2023/05/14 03:27:07;;;;;;;0.50;0.50;;;9.80;99.90;;;;;;5069162;28;20054;-84
2023/05/14 03:29:33;;;;;;;1.95;1.33;;;9.60;99.90;;;;;;5071482;28;20471;-82
2023/05/14 03:31:59;;;;;;;0.10;0.10;;;9.50;99.90;;;;;;5058919;28;20035;-81
2023/05/14 03:34:24;;;;;;;1.70;0.77;;;9.50;99.90;;;;;;5066311;28;20030;-82
2023/05/14 03:36:50;;;;;;;0.13;0.13;;;9.60;99.90;;;;;;5038238;28;20660;-82
2023/05/14 03:39:18;;;;;;;0.10;0.10;;;9.60;99.90;;;;;;5060447;28;20028;-81
2023/05/14 03:41:45;;;;;;;3.75;1.58;;;9.70;99.90;;;;;;5065715;28;20048;-83
2023/05/14 03:44:11;;;;;;;;;;;9.60;99.90;;;;;;5063593;28;20021;-81
2023/05/14 03:46:36;;;;;;;0.20;0.20;;;9.60;99.90;;;;;;5059432;28;19912;-82
2023/05/14 03:49:02;;;;;;;0.10;0.10;;;9.60;99.90;;;;;;5074648;28;20373;-82
2023/05/14 03:51:28;;;;;;;0.10;0.10;;;9.50;99.90;;;;;;5044865;28;20054;-82
2023/05/14 03:53:54;;;;;;;0.63;0.57;;;9.50;99.90;;;;;;5062206;28;20675;-82
2023/05/14 03:56:20;;;;;;;0.10;0.10;;;9.50;99.90;;;;;;5067265;28;20046;-81
2023/05/14 03:58:45;;;;;;;1.13;0.82;;;9.50;99.90;;;;;;5044359;28;20024;-81
2023/05/14 04:01:11;;;;;;;0.10;0.10;;;9.50;99.90;;;;;;5065212;28;20054;-83
2023/05/14 04:03:37;;;;;;;0.10;0.10;;;9.50;99.90;;;;;;5064019;28;20033;-81
2023/05/14 04:06:03;;;;;;;0.20;0.20;;;9.50;99.90;;;;;;5039615;28;20029;-83
2023/05/14 04:08:28;;;;;;;0.38;0.38;;;9.50;99.90;;;;;;5062125;28;20024;-81
2023/05/14 04:10:54;;;;;;;0.20;0.20;;;9.40;99.90;;;;;;5066642;28;20496;-81
2023/05/14 04:13:20;;;;;;;0.13;0.13;;;9.40;99.90;;;;;;5041188;28;20056;-82
2023/05/14 04:15:45;;;;;;;0.60;0.25;;;9.40;99.90;;;;;;5043151;28;20028;-82
2023/05/14 04:18:11;;;;;;;1.13;1.05;;;9.40;99.90;;;;;;5066906;28;20046;-82
2023/05/14 04:20:37;;;;;;;0.10;0.10;;;9.50;99.90;;;;;;5061502;28;20515;-80
2023/05/14 04:23:03;;;;;;;0.20;0.20;;;9.50;99.90;;;;;;5091830;28;20459;-80
2023/05/14 04:25:29;;;;;;;0.20;0.20;;;9.50;99.90;;;;;;5054618;28;20859;-86
2023/05/14 04:27:55;;;;;;;0.55;0.35;;;9.60;99.90;;;;;;5063661;28;20094;-82
2023/05/14 04:30:21;;;;;;;0.40;0.40;;;9.50;99.90;;;;;;5080807;28;20020;-79
2023/05/14 04:32:46;;;;;;;0.20;0.20;;;9.50;99.90;;;;;;5061278;28;20099;-84
2023/05/14 04:35:12;;;;;;;0.22;0.22;;;9.60;99.90;;;;;;5053270;28;20016;-84
2023/05/14 04:37:38;;;;;;;0.10;0.10;;;9.80;99.90;;;;;;5033775;28;20067;-83
2023/05/14 04:40:05;;;;;;;0.38;0.38;;;9.90;99.90;;;;;;5061817;28;20033;-84
2023/05/14 04:42:31;;;;;;;0.30;0.30;;;9.80;99.90;;;;;;5040150;28;20103;-85
2023/05/14 04:44:57;;;;;;;0.30;0.30;;;10.00;99.90;;;;;;5042690;28;20028;-82
2023/05/14 04:47:23;;;;;;;0.97;0.63;;;10.10;99.90;;;;;;5067037;28;20033;-83
2023/05/14 04:49:48;;;;;;;3.03;1.80;;;10.30;99.90;;;;;;5064362;28;20585;-84
2023/05/14 04:52:14;;;;;;;0.10;0.10;;;10.30;99.90;;;;;;5064350;28;20029;-85
2023/05/14 04:54:40;;;;;;;0.10;0.10;;;10.20;99.90;;;;;;5069976;28;20032;-81
2023/05/14 04:57:06;;;;;;;0.20;0.20;;;10.40;99.90;;;;;;5068952;28;20056;-81
2023/05/14 04:59:31;;;;;;;0.10;0.10;;;10.50;99.90;;;;;;5041478;28;20025;-84
2023/05/14 05:01:57;;;;;;;0.17;0.17;;;10.60;99.90;;;;;;5049149;28;20033;-80
2023/05/14 05:04:23;;;;;;;0.32;0.32;;;10.80;99.90;;;;;;5065678;28;20029;-80
2023/05/14 05:06:49;;;;;;;0.50;0.50;;;10.90;99.30;;;;;;5060348;28;20025;-81
2023/05/14 05:09:16;;;;;;;0.20;0.20;;;10.90;99.30;;;;;;5074900;28;20020;-81
2023/05/14 05:11:42;;;;;;;;;;;10.90;98.80;;;;;;5070958;28;20028;-80
2023/05/14 05:14:08;;;;;;;0.10;0.10;;;11.10;98.70;;;;;;5053061;28;19908;-80
2023/05/14 05:16:33;;;;;;;0.38;0.38;;;11.20;98.60;;;;;;5051245;28;20020;-80
2023/05/14 05:18:59;;;;;;;0.10;0.10;;;11.20;97.90;;;;;;5052603;28;20484;-81
2023/05/14 05:21:25;;;;;;;0.10;0.10;;;11.30;98.20;;;;;;5070084;28;20074;-80
2023/05/14 05:23:50;;;;;;;0.90;0.45;;;11.60;97.50;;;;;;5041953;28;20078;-81
2023/05/14 05:26:16;;;;;;;0.52;0.52;;;11.80;96.90;;;;;;5068683;28;20369;-80
2023/05/14 05:28:42;;;;;;;0.20;0.20;;;12.20;96.40;;;;;;5057251;28;20432;-84
2023/05/14 05:31:07;;;;;;;0.77;0.47;;;12.30;96.50;;;;;;5054576;28;20036;-80
2023/05/14 05:33:34;;;;;;;0.20;0.20;;;14.30;93.00;;;;;;5050983;28;20028;-84
2023/05/14 05:35:59;;;;;;;0.57;0.57;;;15.10;90.10;;;;;;5052315;28;20031;-83
2023/05/14 05:38:25;;;;;;;0.10;0.10;;;15.10;90.20;;;;;;5056290;28;20020;-81
2023/05/14 05:40:51;;;;;;;0.27;0.27;;;15.40;87.20;;;;;;5042952;28;20048;-81
2023/05/14 05:43:17;;;;;;;0.10;0.10;;;14.00;90.10;;;;;;5048418;28;20044;-82
2023/05/14 05:45:43;;;;;;;0.10;0.10;;;12.70;93.30;;;;;;5068136;28;20040;-83
2023/05/14 05:48:08;;;;;;;0.15;0.15;;;12.20;94.60;;;;;;5061238;28;20037;-81
2023/05/14 05:50:34;;;;;;;0.03;0.03;;;11.90;94.80;;;;;;5060142;28;20056;-84
2023/05/14 05:53:00;;;;;;;0.20;0.20;;;11.80;95.10;;;;;;5055587;28;20064;-82
2023/05/14 05:55:25;;;;;;;0.20;0.20;;;11.70;95.20;;;;;;5031622;28;20481;-82
2023/05/14 05:57:51;;;;;;;0.30;0.30;;;11.70;95.30;;;;;;5036463;28;20027;-81
2023/05/14 06:00:17;;;;;;;0.50;0.50;;;11.70;95.00;;;;;;5043262;28;20466;-82
2023/05/14 06:02:43;;;;;;;1.10;0.45;;;11.90;94.80;;;;;;5055341;28;20032;-88
2023/05/14 06:05:10;;;;;;;0.10;0.10;;;12.20;94.30;;;;;;5048898;28;20041;-85
2023/05/14 06:07:36;;;;;;;0.20;0.20;;;12.40;93.30;;;;;;5065469;28;20024;-86
2023/05/14 06:10:02;;;;;;;0.20;0.20;;;13.00;92.90;;;;;;5056326;28;20036;-86
2023/05/14 06:12:27;;;;;;;0.10;0.10;;;13.00;92.60;;;;;;5068146;28;20099;-86
2023/05/14 06:14:56;;;;;;;0.08;0.08;;;13.00;92.10;;;;;;5060253;28;20094;-86
2023/05/14 06:17:24;;;;;;;0.00;0.00;;;13.20;92.20;;;;;;5042231;28;20103;-88
2023/05/14 06:19:50;;;;;;;0.45;0.43;;;13.60;91.70;;;;;;5060220;28;20039;-86
2023/05/14 06:22:16;;;;;;;0.40;0.40;;;13.70;91.70;;;;;;5064725;28;20039;-86
2023/05/14 06:24:42;;;;;;;0.10;0.10;;;16.20;87.90;;;;;;5047786;28;20259;-87
2023/05/14 06:27:10;;;;;;;0.13;0.13;;;16.80;77.40;;;;;;5056112;28;20041;-86
2023/05/14 06:29:36;;;;;;;0.88;0.88;;;15.30;84.30;;;;;;5053228;28;20149;-86
2023/05/14 06:32:03;;;;;;;0.00;0.00;;;14.80;87.40;;;;;;5060500;28;20082;-86
2023/05/14 06:34:29;;;;;;;0.35;0.28;;;15.40;84.40;;;;;;5037539;28;20032;-87
2023/05/14 06:36:56;;;;;;;0.20;0.20;;;15.70;83.30;;;;;;5035537;28;20025;-86
2023/05/14 06:39:22;;;;;;;0.20;0.20;;;17.60;78.40;;;;;;5046827;28;20033;-88
2023/05/14 06:41:48;;;;;;;;;;;20.30;70.80;;;;;;5058429;28;20040;-88
2023/05/14 06:44:14;;;;;;;0.00;0.00;;;20.50;68.60;;;;;;5062359;28;20636;-88
2023/05/14 06:46:40;;;;;;;0.40;0.40;;;20.30;67.40;;;;;;5056587;28;20054;-90
2023/05/14 06:49:06;;;;;;;0.00;0.00;;;20.80;67.30;;;;;;5050363;28;20484;-88
2023/05/14 06:51:31;;;;;;;0.27;0.20;;;21.30;65.20;;;;;;5048499;28;20111;-88
2023/05/14 06:53:57;;;;;;;0.00;0.00;;;20.70;65.00;;;;;;5053995;28;20032;-90
2023/05/14 06:56:23;;;;;;;0.00;0.00;;;21.50;62.00;;;;;;5059107;28;20045;-87
2023/05/14 06:58:48;;;;;;;0.43;0.43;;;22.50;60.00;;;;;;5057057;28;20028;-90
2023/05/14 07:01:15;;;;;;;0.47;0.30;;;21.30;63.70;;;;;;5050966;28;20070;-89
2023/05/14 07:03:41;;;;;;;0.20;0.20;;;21.70;61.00;;;;;;5061441;28;20113;-88
2023/05/14 07:06:07;;;;;;;0.80;0.60;;;19.60;64.70;;;;;;5051717;28;20120;-88
2023/05/14 07:08:32;;;;;;;0.07;0.07;;;22.20;60.40;;;;;;5053916;28;20270;-87
2023/05/14 07:10:58;;;;;;;0.10;0.10;;;22.50;57.30;;;;;;5061025;28;20036;-86
2023/05/14 07:13:26;;;;;;;0.00;0.00;;;20.50;60.40;;;;;;5057032;28;20047;-86
2023/05/14 07:15:54;;;;;;;0.90;0.43;;;18.30;65.60;;;;;;5054484;28;20090;-86
2023/05/14 07:18:20;;;;;;;0.00;0.00;;;20.30;64.30;;;;;;5052934;28;20413;-86
2023/05/14 07:20:46;;;;;;;0.30;0.30;;;22.30;59.50;;;;;;5050188;28;20041;-87
2023/05/14 07:23:12;;;;;;;0.13;0.13;;;19.80;62.40;;;;;;5052000;28;20605;-88
2023/05/14 07:25:37;;;;;;;0.03;0.03;;;20.80;61.90;;;;;;5031169;28;20033;-87
2023/05/14 07:28:03;;;;;;;0.40;0.40;;;22.10;56.60;;;;;;5027119;28;20032;-87
2023/05/14 07:30:29;;;;;;;0.37;0.37;;;18.20;65.80;;;;;;5029576;28;20033;-86
2023/05/14 07:32:55;;;;;;;0.28;0.28;;;17.60;69.40;;;;;;5049633;28;20032;-86
2023/05/14 07:35:20;;;;;;;0.10;0.10;;;18.90;65.30;;;;;;5035041;28;20064;-87
2023/05/14 07:37:46;;;;;;;0.03;0.03;;;19.00;63.90;;;;;;5052159;28;20059;-86
2023/05/14 07:40:12;;;;;;;0.00;0.00;;;17.80;69.80;;;;;;5052745;28;20032;-86
2023/05/14 07:42:37;;;;;;;0.30;0.30;;;16.80;73.20;;;;;;5042618;28;20314;-86
2023/05/14 07:45:04;;;;;;;0.13;0.13;;;16.70;73.30;;;;;;5037229;28;20033;-87
2023/05/14 07:47:30;;;;;;;0.28;0.28;;;17.40;69.40;;;;;;5054659;28;20044;-87
2023/05/14 07:49:56;;;;;;;0.00;0.00;;;22.90;59.90;;;;;;5049127;28;20053;-87
2023/05/14 07:52:22;;;;;;;0.65;0.63;;;24.80;55.10;;;;;;5044858;28;20356;-87
2023/05/14 07:54:50;;;;;;;0.10;0.10;;;24.00;55.90;;;;;;5033391;28;20039;-87
2023/05/14 07:57:15;;;;;;;0.30;0.30;;;21.60;56.30;;;;;;5046398;28;20135;-84
2023/05/14 07:59:41;;;;;;;0.20;0.20;;;19.10;65.00;;;;;;5056892;28;20111;-84
2023/05/14 08:02:09;;;;;;;0.37;0.37;;;20.80;63.90;;;;;;5050580;28;20562;-84
2023/05/14 08:04:34;;;;;;;0.22;0.22;;;20.80;59.30;;;;;;5035490;28;20028;-86
2023/05/14 08:07:00;;;;;;;0.03;0.03;;;19.40;64.50;;;;;;5049529;28;20032;-86
2023/05/14 08:09:26;;;;;;;0.00;0.00;;;19.60;64.60;;;;;;5058158;28;20291;-86
2023/05/14 08:11:52;;;;;;;0.20;0.20;;;19.00;65.70;;;;;;5050526;28;20271;-86
2023/05/14 08:14:17;;;;;;;0.00;0.00;;;18.50;66.20;;;;;;5049586;28;20024;-86
2023/05/14 08:16:43;;;;;;;0.27;0.27;;;19.20;65.20;;;;;;5056335;28;20037;-86
2023/05/14 08:19:11;;;;;;;0.33;0.30;;;20.10;63.40;;;;;;5035186;28;20029;-86
2023/05/14 08:21:37;;;;;;;0.03;0.03;;;19.90;63.00;;;;;;5062443;28;20028;-85
2023/05/14 08:24:03;;;;;;;0.10;0.10;;;21.20;59.90;;;;;;5041234;28;20032;-86
2023/05/14 08:26:29;;;;;;;0.20;0.20;;;21.00;60.10;;;;;;5036635;28;20092;-86
2023/05/14 08:28:54;;;;;;;0.23;0.23;;;21.10;60.20;;;;;;5054596;28;20131;-86
2023/05/14 08:31:20;;;;;;;0.00;0.00;;;22.10;57.50;;;;;;5039235;28;20113;-86
2023/05/14 08:33:46;;;;;;;0.73;0.73;;;22.10;58.20;;;;;;5068892;28;20602;-86
2023/05/14 08:36:11;;;;;;;0.00;0.00;;;23.20;55.30;;;;;;5058270;28;20032;-85
2023/05/14 08:38:37;;;;;;;0.00;0.00;;;22.10;58.70;;;;;;5067702;28;20024;-85
2023/05/14 08:41:05;;;;;;;0.40;0.20;;;22.50;57.60;;;;;;5038351;28;20302;-86
2023/05/14 08:43:40;;;;;;;0.35;0.35;;;23.80;55.20;;;;;;5060544;28;20031;-85
2023/05/14 08:46:06;;;;;;;0.20;0.20;;;21.70;58.10;;;;;;5061849;28;20028;-85
2023/05/14 08:48:33;;;;;;;0.00;0.00;;;22.60;57.50;;;;;;5054049;28;20087;-85
2023/05/14 08:50:59;;;;;;;0.55;0.32;;;26.10;52.00;;;;;;5041468;28;20087;-86
2023/05/14 08:53:25;;;;;;;0.47;0.47;;;25.50;54.00;;;;;;5051971;28;20035;-86
2023/05/14 08:55:53;;;;;;;0.03;0.03;;;23.40;53.90;;;;;;5062494;28;20040;-85
2023/05/14 08:58:18;;;;;;;0.10;0.10;;;21.70;58.50;;;;;;5053407;28;20268;-88
2023/05/14 09:00:44;;;;;;;0.00;0.00;;;22.30;58.10;;;;;;5044026;28;20033;-85
2023/05/14 09:03:11;;;;;;;0.20;0.20;;;22.20;58.80;;;;;;5047250;28;20043;-86
2023/05/14 09:05:37;;;;;;;0.10;0.10;;;20.80;62.90;;;;;;5055493;28;20040;-85
2023/05/14 09:08:03;;;;;;;0.63;0.28;;;20.80;65.40;;;;;;5062358;28;20413;-86
2023/05/14 09:10:29;;;;;;;0.07;0.07;;;20.70;61.10;;;;;;5059815;28;20849;-83
2023/05/14 09:12:55;;;;;;;3.10;0.37;;;21.50;63.00;;;;;;5041502;28;20495;-85
2023/05/14 09:15:22;;;;;;;0.30;0.30;;;23.20;57.80;;;;;;5056742;28;20043;-85
2023/05/14 09:17:48;;;;;;;1.02;0.88;;;21.50;61.00;;;;;;5051473;28;20036;-84
2023/05/14 09:20:14;;;;;;;0.00;0.00;;;25.80;57.60;;;;;;5049649;28;20036;-89
2023/05/14 09:22:39;;;;;;;0.00;0.00;;;28.90;52.90;;;;;;5061629;28;20056;-88
2023/05/14 09:25:08;;;;;;;0.05;0.05;;;27.30;51.80;;;;;;5058082;28;20483;-85
2023/05/14 09:27:35;;;;;;;0.20;0.20;;;27.40;53.80;;;;;;5058547;28;20024;-88
2023/05/14 09:30:18;;;;;;;0.00;0.00;;;24.50;56.60;;;;;;5057403;28;20028;-84
2023/05/14 09:32:45;;;;;;;0.13;0.13;;;23.60;57.10;;;;;;5050431;28;20104;-83
2023/05/14 09:35:11;;;;;;;0.00;0.00;;;26.00;59.40;;;;;;5060840;28;20120;-84
2023/05/14 09:37:37;;;;;;;0.20;0.20;;;26.70;58.00;;;;;;5061741;28;20029;-82
2023/05/14 09:40:07;;;;;;;0.63;0.63;;;28.80;53.00;;;;;;5052982;28;20102;-83
2023/05/14 09:42:33;;;;;;;0.20;0.20;;;25.10;56.40;;;;;;5060842;28;20373;-84
2023/05/14 09:44:59;;;;;;;0.10;0.10;;;22.90;59.30;;;;;;5057107;28;20105;-84
2023/05/14 09:47:25;;;;;;;0.10;0.10;;;22.00;61.70;;;;;;5049865;28;20021;-84
2023/05/14 09:49:51;;;;;;;0.03;0.03;;;23.00;61.30;;;;;;5047802;28;20052;-85
2023/05/14 09:52:22;;;;;;;0.17;0.17;;;24.80;60.30;;;;;;5042109;28;20408;-85
2023/05/14 09:54:49;;;;;;;0.00;0.00;;;23.60;57.50;;;;;;5051779;28;20437;-84
2023/05/14 09:57:15;;;;;;;0.00;0.00;;;23.00;59.90;;;;;;5053349;28;20578;-84
2023/05/14 09:59:41;;;;;;;0.00;0.00;;;23.40;59.70;;;;;;5037486;28;20036;-86
2023/05/14 10:02:36;;;;;;;1.13;0.93;;;23.80;59.90;;;;;;5061442;28;20601;-86
2023/05/14 10:05:04;;;;;;;0.65;0.65;;;23.40;58.30;;;;;;5044496;28;20029;-85
2023/05/14 10:07:38;;;;;;;16.35;0.55;;;23.10;61.60;;;;;;5048454;28;20033;-87
2023/05/14 10:10:08;;;;;;;0.10;0.10;;;23.00;61.10;;;;;;5054665;28;20507;-85
2023/05/14 10:12:37;;;;;;;0.50;0.50;;;23.10;60.20;;;;;;5051585;28;20036;-86
2023/05/14 10:15:11;;;;;;;0.05;0.05;;;23.10;61.80;;;;;;5035181;28;20017;-85
2023/05/14 10:17:41;;;;;;;0.13;0.13;;;24.00;61.20;;;;;;5052979;28;20492;-84
2023/05/14 10:20:10;;;;;;;0.10;0.10;;;23.80;59.70;;;;;;5037026;28;20046;-85
2023/05/14 10:22:36;;;;;;;0.45;0.22;;;25.30;57.80;;;;;;5041086;28;20519;-84
2023/05/14 10:25:03;;;;;;;0.30;0.30;;;22.50;63.20;;;;;;5056207;28;20029;-86
2023/05/14 10:27:29;;;;;;;;;;;21.10;65.90;;;;;;5057548;28;20050;-85
2023/05/14 10:29:55;;;;;;;0.40;0.40;;;21.00;66.90;;;;;;5057581;28;20601;-86
2023/05/14 10:32:25;;;;;;;0.10;0.10;;;20.80;66.00;;;;;;5060518;28;20028;-86
2023/05/14 10:34:54;;;;;;;0.30;0.30;;;20.90;66.00;;;;;;5039497;28;20025;-85
2023/05/14 10:37:25;;;;;;;0.60;0.43;;;21.40;65.30;;;;;;5052754;28;20028;-83
2023/05/14 10:39:53;;;;;;;0.75;0.70;;;21.00;65.40;;;;;;5048281;28;20487;-83
2023/05/14 10:42:26;;;;;;;0.20;0.20;;;20.20;67.90;;;;;;5060770;28;20079;-83
2023/05/14 10:44:57;;;;;;;0.28;0.28;;;20.60;68.90;;;;;;5059660;28;20040;-83
2023/05/14 10:47:30;;;;;;;0.60;0.60;;;22.00;70.20;;;;;;5053423;28;20036;-82
2023/05/14 10:49:58;;;;;;;0.00;0.00;;;22.50;68.40;;;;;;5035537;28;20135;-84
2023/05/14 10:52:25;;;;;;;0.55;0.55;;;22.50;67.50;;;;;;5057904;28;20113;-84
2023/05/14 10:54:58;;;;;;;0.10;0.10;;;22.80;65.10;;;;;;5051130;28;20027;-84
2023/05/14 10:57:28;;;;;;;0.20;0.20;;;23.10;65.30;;;;;;5055191;28;20051;-84
2023/05/14 10:59:56;;;;;;;0.20;0.20;;;21.90;66.50;;;;;;5054397;28;20032;-84
2023/05/14 11:02:32;;;;;;;0.08;0.08;;;21.00;66.50;;;;;;5052351;28;20025;-84
2023/05/14 11:04:59;;;;;;;0.50;0.50;;;20.30;68.40;;;;;;5057015;28;20025;-82
2023/05/14 11:07:32;;;;;;;0.00;0.00;;;20.60;67.40;;;;;;5053034;28;20017;-84
2023/05/14 11:10:06;;;;;;;5.22;1.30;;;20.40;66.70;;;;;;5041240;28;20020;-84
2023/05/14 11:12:33;;;;;;;0.88;0.52;;;20.90;67.60;;;;;;5054766;28;20732;-81
2023/05/14 11:15:02;;;;;;;0.47;0.47;;;20.40;66.90;;;;;;5056811;28;20024;-82
2023/05/14 11:17:29;;;;;;;0.57;0.57;;;20.40;69.40;;;;;;5029119;28;20778;-80
2023/05/14 11:19:56;;;;;;;0.17;0.17;;;20.30;71.50;;;;;;5052726;28;20212;-82
2023/05/14 11:22:22;;;;;;;0.10;0.10;;;20.50;72.10;;;;;;5057730;28;20039;-82
2023/05/14 11:24:48;;;;;;;0.28;0.28;;;20.60;70.70;;;;;;5049343;28;20029;-82
2023/05/14 11:27:15;;;;;;;0.20;0.20;;;20.70;74.40;;;;;;5071055;28;20097;-82
2023/05/14 11:29:46;;;;;;;0.22;0.20;;;20.90;71.40;;;;;;5043967;28;20055;-82
2023/05/14 11:32:13;;;;;;;2.28;0.75;;;21.30;73.00;;;;;;5063130;28;20024;-83
2023/05/14 11:34:39;;;;;;;0.35;0.35;;;21.80;72.80;;;;;;5036439;28;20689;-83
2023/05/14 11:37:09;;;;;;;0.30;0.30;;;21.70;69.50;;;;;;5058470;28;20141;-83
2023/05/14 11:39:36;;;;;;;1.10;0.82;;;20.40;69.10;;;;;;5061513;28;20043;-84
2023/05/14 11:42:08;;;;;;;1.08;0.70;;;19.40;76.40;;;;;;5060229;28;20124;-83
2023/05/14 11:44:34;;;;;;;0.45;0.45;;;19.60;75.40;;;;;;5035259;28;20085;-84
2023/05/14 11:47:00;;;;;;;0.80;0.80;;;19.40;78.80;;;;;;5064786;28;20029;-84
2023/05/14 11:49:30;;;;;;;0.55;0.55;;;19.60;82.20;;;;;;5063389;28;20593;-83
2023/05/14 11:52:00;;;;;;;0.20;0.20;;;19.90;83.60;;;;;;5064629;28;20120;-83
2023/05/14 11:54:30;;;;;;;1.02;0.65;;;20.10;86.40;;;;;;5051648;28;20042;-83
2023/05/14 11:56:57;;;;;;;0.40;0.40;;;20.20;85.80;;;;;;5057232;28;20024;-83
2023/05/14 11:59:31;;;;;;;0.30;0.30;;;20.30;88.40;;;;;;5058494;28;20029;-84
2023/05/14 12:01:57;;;;;;;1.05;0.95;;;20.60;83.40;;;;;;5057125;28;20085;-83
2023/05/14 12:04:23;;;;;;;;;;;20.80;83.10;;;;;;5057438;28;20028;-83
2023/05/14 12:06:50;;;;;;;0.47;0.40;;;21.30;82.20;;;;;;5047376;28;19919;-83
2023/05/14 12:09:19;;;;;;;;;;;21.20;81.60;;;;;;5051803;28;20039;-84
2023/05/14 12:11:46;;;;;;;2.20;0.65;;;20.30;80.20;;;;;;5047506;28;19919;-88
2023/05/14 12:14:19;;;;;;;0.40;0.40;;;19.60;81.20;;;;;;5030017;28;20037;-88
2023/05/14 12:16:46;;;;;;;0.57;0.57;;;19.50;83.10;;;;;;5041465;28;20395;-85
2023/05/14 12:19:18;;;;;;;;;;;19.40;81.50;;;;;;5055538;28;20021;-87
2023/05/14 12:21:47;;;;;;;2.67;0.70;;;18.80;83.00;;;;;;5046290;28;19924;-88
2023/05/14 12:24:14;;;;;;;0.40;0.40;;;19.30;79.40;;;;;;5033862;28;20028;-87
2023/05/14 12:26:44;;;;;;;0.80;0.57;;;19.30;78.20;;;;;;5035541;28;20131;-86
2023/05/14 12:29:12;;;;;;;0.35;0.35;;;19.40;79.90;;;;;;5052956;28;20309;-84
2023/05/14 12:31:47;;;;;;;0.43;0.43;;;19.50;78.40;;;;;;5056223;28;20035;-84
2023/05/14 12:34:13;;;;;;;0.90;0.63;;;19.00;79.00;;;;;;5052896;28;20136;-85
2023/05/14 12:36:39;;;;;;;0.70;0.52;;;18.80;77.40;;;;;;5048972;28;20029;-84
2023/05/14 12:39:05;;;;;;;0.17;0.17;;;18.50;77.10;;;;;;5052965;28;20100;-84
2023/05/14 12:41:32;;;;;;;0.43;0.43;;;18.30;77.50;;;;;;5036211;28;20306;-84
2023/05/14 12:43:58;;;;;;;0.35;0.35;;;18.40;79.60;;;;;;5050616;28;20044;-84
2023/05/14 12:46:25;;;;;;;;;;;18.70;78.90;;;;;;5055858;28;20110;-84
2023/05/14 12:48:51;;;;;;;0.63;0.60;;;19.10;76.30;;;;;;5052998;28;19999;-84